createdAt,value
2023-02-18T00:01:40.475Z,100.00
2023-02-18T00:04:08.333Z,100.00
2023-02-18T00:06:37.626Z,100.00
2023-02-18T00:09:08.888Z,100.00
2023-02-18T00:11:38.187Z,100.00
2023-02-18T00:14:08.141Z,100.00
2023-02-18T00:16:35.824Z,100.00
2023-02-18T00:19:06.093Z,100.00
2023-02-18T00:21:35.304Z,100.00
2023-02-18T00:24:03.295Z,100.00
2023-02-18T00:26:32.454Z,100.00
2023-02-18T00:29:00.860Z,100.00
2023-02-18T00:31:33.070Z,100.00
2023-02-18T00:34:06.300Z,100.00
2023-02-18T00:36:36.209Z,100.00
2023-02-18T00:39:07.045Z,100.00
2023-02-18T00:41:37.061Z,100.00
2023-02-18T00:44:05.225Z,100.00
2023-02-18T00:46:33.267Z,100.00
2023-02-18T00:49:02.324Z,100.00
2023-02-18T00:51:30.184Z,100.00
2023-02-18T00:53:59.067Z,100.00
2023-02-18T00:56:26.838Z,100.00
2023-02-18T00:58:55.943Z,100.00
2023-02-18T01:01:24.338Z,100.00
2023-02-18T01:03:52.169Z,100.00
2023-02-18T01:06:21.981Z,100.00
2023-02-18T01:08:50.021Z,100.00
2023-02-18T01:11:17.810Z,100.00
2023-02-18T01:13:47.812Z,100.00
2023-02-18T01:16:18.081Z,100.00
2023-02-18T01:18:48.269Z,100.00
2023-02-18T01:21:16.642Z,100.00
2023-02-18T01:23:44.614Z,100.00
2023-02-18T01:26:13.174Z,100.00
2023-02-18T01:28:41.856Z,100.00
2023-02-18T01:31:13.296Z,100.00
2023-02-18T01:33:42.892Z,100.00
2023-02-18T01:36:11.898Z,100.00
2023-02-18T01:38:40.390Z,100.00
2023-02-18T01:41:08.099Z,100.00
2023-02-18T01:43:36.375Z,100.00
2023-02-18T01:46:13.450Z,100.00
2023-02-18T01:48:45.442Z,100.00
2023-02-18T01:51:18.270Z,100.00
2023-02-18T01:53:51.324Z,100.00
2023-02-18T01:56:25.595Z,100.00
2023-02-18T01:58:56.082Z,100.00
2023-02-18T02:01:25.057Z,100.00
2023-02-18T02:03:54.198Z,100.00
2023-02-18T02:06:24.647Z,100.00
2023-02-18T02:08:56.088Z,100.00
2023-02-18T02:12:00.959Z,100.00
2023-02-18T02:14:44.194Z,100.00
2023-02-18T02:21:50.503Z,100.00
2023-02-18T02:24:59.102Z,100.00
2023-02-18T02:27:39.711Z,100.00
2023-02-18T02:30:43.009Z,100.00
2023-02-18T02:33:58.054Z,100.00
2023-02-18T02:36:32.395Z,100.00
2023-02-18T02:39:08.976Z,100.00
2023-02-18T02:41:48.144Z,100.00
2023-02-18T02:44:23.514Z,100.00
2023-02-18T02:46:54.960Z,100.00
2023-02-18T02:49:36.707Z,100.00
2023-02-18T02:52:10.812Z,100.00
2023-02-18T02:54:38.834Z,100.00
2023-02-18T02:57:30.850Z,100.00
2023-02-18T03:00:11.106Z,100.00
2023-02-18T03:02:53.660Z,100.00
2023-02-18T03:05:32.166Z,100.00
2023-02-18T03:08:18.628Z,100.00
2023-02-18T03:10:59.484Z,100.00
2023-02-18T03:13:38.390Z,100.00
2023-02-18T03:16:15.548Z,100.00
2023-02-18T03:18:49.160Z,100.00
2023-02-18T03:21:24.808Z,100.00
2023-02-18T03:23:58.567Z,100.00
2023-02-18T03:26:32.115Z,100.00
2023-02-18T03:29:04.190Z,100.00
2023-02-18T03:31:35.678Z,100.00
2023-02-18T03:34:08.767Z,100.00
2023-02-18T03:36:38.736Z,100.00
2023-02-18T03:39:12.293Z,100.00
2023-02-18T03:41:40.292Z,100.00
2023-02-18T03:44:10.585Z,100.00
2023-02-18T03:46:40.703Z,100.00
2023-02-18T03:49:09.128Z,100.00
2023-02-18T03:51:36.884Z,100.00
2023-02-18T03:54:05.065Z,100.00
2023-02-18T03:56:35.575Z,100.00
2023-02-18T03:59:04.316Z,100.00
2023-02-18T04:01:32.025Z,100.00
2023-02-18T04:03:59.775Z,100.00
2023-02-18T04:06:27.713Z,100.00
2023-02-18T04:08:55.612Z,100.00
2023-02-18T04:11:23.383Z,100.00
2023-02-18T04:13:52.526Z,100.00
2023-02-18T04:16:20.462Z,100.00
2023-02-18T04:18:48.795Z,100.00
2023-02-18T04:21:16.476Z,100.00
2023-02-18T04:23:44.303Z,100.00
2023-02-18T04:26:12.076Z,100.00
2023-02-18T04:28:40.200Z,100.00
2023-02-18T04:31:09.571Z,100.00
2023-02-18T04:33:37.360Z,100.00
2023-02-18T04:36:05.934Z,100.00
2023-02-18T04:38:34.105Z,100.00
2023-02-18T04:41:02.070Z,100.00
2023-02-18T04:43:30.008Z,100.00
2023-02-18T04:45:57.810Z,100.00
2023-02-18T04:48:26.914Z,100.00
2023-02-18T04:50:54.726Z,100.00
2023-02-18T04:53:22.497Z,100.00
2023-02-18T04:55:51.798Z,100.00
2023-02-18T04:58:19.680Z,100.00
2023-02-18T05:00:47.760Z,100.00
2023-02-18T05:03:15.960Z,100.00
2023-02-18T05:05:46.030Z,100.00
2023-02-18T05:08:13.781Z,100.00
2023-02-18T05:10:41.521Z,100.00
2023-02-18T05:13:09.257Z,100.00
2023-02-18T05:15:37.138Z,100.00
2023-02-18T05:18:05.230Z,100.00
2023-02-18T05:20:33.759Z,100.00
2023-02-18T05:23:03.365Z,100.00
2023-02-18T05:25:31.333Z,100.00
2023-02-18T05:27:59.708Z,100.00
2023-02-18T05:30:27.404Z,100.00
2023-02-18T05:32:55.069Z,100.00
2023-02-18T05:35:22.798Z,100.00
2023-02-18T05:37:50.465Z,100.00
2023-02-18T05:40:19.680Z,100.00
2023-02-18T05:42:48.042Z,100.00
2023-02-18T05:45:14.770Z,100.00
2023-02-18T05:47:42.566Z,100.00
2023-02-18T05:50:10.652Z,100.00
2023-02-18T05:52:38.552Z,100.00
2023-02-18T05:55:07.088Z,100.00
2023-02-18T05:57:36.747Z,100.00
2023-02-18T06:00:05.677Z,100.00
2023-02-18T06:02:33.638Z,100.00
2023-02-18T06:05:01.717Z,100.00
2023-02-18T06:07:29.534Z,100.00
2023-02-18T06:09:57.386Z,100.00
2023-02-18T06:12:25.153Z,100.00
2023-02-18T06:14:54.225Z,100.00
2023-02-18T06:17:22.876Z,100.00
2023-02-18T06:19:50.978Z,100.00
2023-02-18T06:22:18.716Z,100.00
2023-02-18T06:24:46.688Z,100.00
2023-02-18T06:27:15.593Z,100.00
2023-02-18T06:29:43.981Z,100.00
2023-02-18T06:32:13.122Z,100.00
2023-02-18T06:34:40.926Z,100.00
2023-02-18T06:37:08.618Z,100.00
2023-02-18T06:39:37.470Z,100.00
2023-02-18T06:42:05.749Z,100.00
2023-02-18T06:44:33.543Z,100.00
2023-02-18T06:47:01.287Z,100.00
2023-02-18T06:49:30.946Z,100.00
2023-02-18T06:51:58.922Z,100.00
2023-02-18T06:54:26.691Z,100.00
2023-02-18T06:56:54.489Z,100.00
2023-02-18T06:59:22.233Z,100.00
2023-02-18T07:01:50.517Z,100.00
2023-02-18T07:04:18.318Z,100.00
2023-02-18T07:06:47.584Z,100.00
2023-02-18T07:09:15.831Z,100.00
2023-02-18T07:11:43.565Z,100.00
2023-02-18T07:14:11.304Z,100.00
2023-02-18T07:16:39.767Z,100.00
2023-02-18T07:19:07.529Z,100.00
2023-02-18T07:21:35.168Z,100.00
2023-02-18T07:24:04.716Z,100.00
2023-02-18T07:26:32.489Z,100.00
2023-02-18T07:29:00.226Z,100.00
2023-02-18T07:31:28.577Z,100.00
2023-02-18T07:33:56.482Z,100.00
2023-02-18T07:36:24.583Z,100.00
2023-02-18T07:38:52.434Z,100.00
2023-02-18T07:41:23.730Z,100.00
2023-02-18T07:43:52.005Z,100.00
2023-02-18T07:46:20.240Z,100.00
2023-02-18T07:48:47.894Z,100.00
2023-02-18T07:51:15.653Z,100.00
2023-02-18T07:53:43.725Z,100.00
2023-02-18T07:56:12.015Z,100.00
2023-02-18T07:58:41.701Z,100.00
2023-02-18T08:01:11.814Z,100.00
2023-02-18T08:03:40.204Z,100.00
2023-02-18T08:06:09.591Z,100.00
2023-02-18T08:08:37.695Z,100.00
2023-02-18T08:11:18.070Z,98.22
2023-02-18T08:13:48.204Z,96.64
2023-02-18T08:16:16.085Z,95.98
2023-02-18T08:18:45.417Z,96.24
2023-02-18T08:21:13.283Z,97.84
2023-02-18T08:23:41.793Z,97.92
2023-02-18T08:26:10.387Z,97.61
2023-02-18T08:28:43.229Z,97.03
2023-02-18T08:31:18.117Z,97.23
2023-02-18T08:33:45.941Z,97.04
2023-02-18T08:36:13.644Z,97.91
2023-02-18T08:38:41.942Z,95.93
2023-02-18T08:41:11.214Z,95.20
2023-02-18T08:43:39.056Z,95.71
2023-02-18T08:46:07.469Z,94.97
2023-02-18T08:48:36.610Z,95.48
2023-02-18T08:51:13.471Z,95.06
2023-02-18T08:53:41.901Z,95.15
2023-02-18T08:56:10.855Z,94.20
2023-02-18T08:58:39.014Z,93.22
2023-02-18T09:01:08.824Z,91.27
2023-02-18T09:03:38.741Z,90.73
2023-02-18T09:06:07.771Z,90.25
2023-02-18T09:08:36.021Z,89.54
2023-02-18T09:11:06.657Z,89.85
2023-02-18T09:13:35.351Z,89.45
2023-02-18T09:16:06.322Z,89.22
2023-02-18T09:18:35.391Z,89.80
2023-02-18T09:21:07.507Z,88.92
2023-02-18T09:23:36.601Z,88.44
2023-02-18T09:26:06.321Z,88.97
2023-02-18T09:28:34.289Z,88.32
2023-02-18T09:31:06.723Z,88.64
2023-02-18T09:33:37.253Z,87.39
2023-02-18T09:36:08.204Z,87.58
2023-02-18T09:38:36.501Z,87.86
2023-02-18T09:41:08.561Z,87.15
2023-02-18T09:43:42.975Z,88.24
2023-02-18T09:46:31.616Z,88.17
2023-02-18T09:49:03.767Z,88.07
2023-02-18T09:51:33.072Z,88.85
2023-02-18T09:54:01.017Z,89.21
2023-02-18T09:56:32.092Z,88.62
2023-02-18T09:59:03.116Z,88.64
2023-02-18T10:01:35.255Z,89.25
2023-02-18T10:04:08.192Z,89.05
2023-02-18T10:06:38.183Z,86.85
2023-02-18T10:09:12.195Z,86.54
2023-02-18T10:11:43.786Z,86.36
2023-02-18T10:14:14.605Z,86.75
2023-02-18T10:16:45.360Z,85.15
2023-02-18T10:19:22.972Z,85.82
2023-02-18T10:21:54.400Z,86.23
2023-02-18T10:24:30.661Z,86.02
2023-02-18T10:27:00.843Z,84.82
2023-02-18T10:29:30.207Z,85.42
2023-02-18T10:32:05.902Z,85.48
2023-02-18T10:34:42.731Z,84.98
2023-02-18T10:37:28.738Z,85.03
2023-02-18T10:40:05.821Z,85.42
2023-02-18T10:42:47.686Z,85.87
2023-02-18T10:45:27.484Z,86.31
2023-02-18T10:48:09.302Z,86.76
2023-02-18T10:50:40.737Z,86.36
2023-02-18T10:53:13.724Z,86.78
2023-02-18T10:55:44.254Z,85.75
2023-02-18T10:58:35.062Z,83.80
2023-02-18T11:01:08.547Z,83.69
2023-02-18T11:03:44.785Z,83.67
2023-02-18T11:06:23.619Z,80.64
2023-02-18T11:08:55.709Z,80.08
2023-02-18T11:11:26.763Z,80.51
2023-02-18T11:13:56.239Z,80.28
2023-02-18T11:16:25.027Z,80.39
2023-02-18T11:18:53.639Z,80.25
2023-02-18T11:21:30.301Z,80.59
2023-02-18T11:24:09.464Z,80.43
2023-02-18T11:26:40.038Z,79.35
2023-02-18T11:29:15.689Z,79.28
2023-02-18T11:31:46.114Z,78.20
2023-02-18T11:34:21.284Z,77.78
2023-02-18T11:36:50.688Z,77.16
2023-02-18T11:39:22.998Z,76.82
2023-02-18T11:41:57.398Z,74.97
2023-02-18T11:44:30.647Z,75.06
2023-02-18T11:47:01.397Z,76.73
2023-02-18T11:49:30.915Z,77.20
2023-02-18T11:52:06.773Z,76.80
2023-02-18T11:54:36.131Z,75.85
2023-02-18T11:57:06.614Z,76.06
2023-02-18T11:59:36.823Z,75.68
2023-02-18T12:02:16.297Z,76.30
2023-02-18T12:04:48.440Z,77.36
2023-02-18T12:07:20.111Z,76.71
2023-02-18T12:09:54.804Z,77.32
2023-02-18T12:12:28.505Z,78.20
2023-02-18T12:14:57.385Z,78.35
2023-02-18T12:17:46.733Z,78.01
2023-02-18T12:20:33.074Z,77.86
2023-02-18T12:23:12.962Z,76.99
2023-02-18T12:25:52.468Z,76.77
2023-02-18T12:28:34.982Z,75.96
2023-02-18T12:31:22.937Z,78.18
2023-02-18T12:34:05.319Z,77.29
2023-02-18T12:36:51.140Z,75.90
2023-02-18T12:39:36.415Z,77.18
2023-02-18T12:42:24.613Z,77.75
2023-02-18T12:45:09.755Z,78.27
2023-02-18T12:47:54.287Z,76.96
2023-02-18T12:50:36.319Z,77.23
2023-02-18T12:53:34.130Z,75.97
2023-02-18T12:56:25.902Z,76.25
2023-02-18T12:59:05.875Z,76.03
2023-02-18T13:01:44.925Z,76.35
2023-02-18T13:04:37.259Z,77.37
2023-02-18T13:07:24.156Z,78.13
2023-02-18T13:10:12.397Z,77.88
2023-02-18T13:12:47.092Z,78.41
2023-02-18T13:15:21.726Z,78.93
2023-02-18T13:17:51.019Z,77.75
2023-02-18T13:20:26.257Z,78.93
2023-02-18T13:22:57.801Z,77.36
2023-02-18T13:25:26.293Z,77.57
2023-02-18T13:28:10.044Z,76.96
2023-02-18T13:30:45.702Z,76.77
2023-02-18T13:33:23.524Z,77.90
2023-02-18T13:35:59.709Z,78.28
2023-02-18T13:38:51.158Z,78.71
2023-02-18T13:41:21.765Z,76.92
2023-02-18T13:43:50.702Z,76.92
2023-02-18T13:46:22.095Z,76.92
2023-02-18T13:48:58.288Z,77.22
2023-02-18T13:51:35.359Z,77.04
2023-02-18T13:54:17.062Z,77.30
2023-02-18T13:56:47.600Z,77.25
2023-02-18T13:59:22.131Z,76.21
2023-02-18T14:01:54.916Z,77.02
2023-02-18T14:04:59.915Z,77.02
2023-02-18T14:07:40.208Z,76.20
2023-02-18T14:10:27.585Z,76.87
2023-02-18T14:13:19.322Z,76.71
2023-02-18T14:16:04.979Z,76.72
2023-02-18T14:18:51.003Z,76.23
2023-02-18T14:21:23.477Z,75.49
2023-02-18T14:24:04.125Z,75.59
2023-02-18T14:26:37.440Z,76.46
2023-02-18T14:29:26.093Z,75.83
2023-02-18T14:31:58.654Z,76.72
2023-02-18T14:35:03.569Z,77.07
2023-02-18T14:38:00.466Z,77.22
2023-02-18T14:40:45.005Z,77.53
2023-02-18T14:43:24.742Z,76.72
2023-02-18T14:46:10.703Z,78.35
2023-02-18T14:48:59.641Z,78.17
2023-02-18T14:51:32.531Z,77.56
2023-02-18T14:54:07.580Z,78.29
2023-02-18T14:56:40.843Z,77.99
2023-02-18T14:59:09.891Z,78.34
2023-02-18T15:01:39.285Z,78.68
2023-02-18T15:04:07.866Z,77.61
2023-02-18T15:06:37.752Z,78.46
2023-02-18T15:09:17.185Z,77.93
2023-02-18T15:11:50.934Z,78.96
2023-02-18T15:14:22.321Z,78.49
2023-02-18T15:16:51.785Z,78.49
2023-02-18T15:19:23.840Z,80.12
2023-02-18T15:21:55.996Z,80.06
2023-02-18T15:24:32.914Z,78.94
2023-02-18T15:27:02.847Z,79.99
2023-02-18T15:29:34.917Z,80.36
2023-02-18T15:32:08.264Z,80.24
2023-02-18T15:34:39.434Z,80.41
2023-02-18T15:37:13.868Z,80.09
2023-02-18T15:39:44.615Z,81.29
2023-02-18T15:42:20.442Z,80.71
2023-02-18T15:44:51.579Z,81.78
2023-02-18T15:47:21.068Z,81.83
2023-02-18T15:49:54.909Z,81.76
2023-02-18T15:52:28.617Z,81.65
2023-02-18T15:55:02.228Z,82.28
2023-02-18T15:57:31.834Z,82.52
2023-02-18T16:00:17.510Z,82.16
2023-02-18T16:02:56.315Z,82.37
2023-02-18T16:05:29.289Z,82.65
2023-02-18T16:08:06.923Z,83.25
2023-02-18T16:10:50.503Z,83.41
2023-02-18T16:13:20.007Z,82.96
2023-02-18T16:15:51.228Z,83.11
2023-02-18T16:18:29.838Z,83.78
2023-02-18T16:21:02.781Z,84.07
2023-02-18T16:23:37.802Z,83.45
2023-02-18T16:26:27.987Z,83.92
2023-02-18T16:29:02.377Z,84.51
2023-02-18T16:31:31.636Z,84.65
2023-02-18T16:34:03.193Z,84.70
2023-02-18T16:36:31.371Z,85.79
2023-02-18T16:39:02.352Z,85.55
2023-02-18T16:41:32.178Z,85.83
2023-02-18T16:44:00.765Z,86.01
2023-02-18T16:46:30.183Z,86.28
2023-02-18T16:48:58.070Z,86.94
2023-02-18T16:51:31.177Z,87.13
2023-02-18T16:54:00.860Z,87.47
2023-02-18T16:56:33.741Z,88.03
2023-02-18T16:59:03.695Z,88.65
2023-02-18T17:01:34.745Z,88.12
2023-02-18T17:04:04.463Z,88.07
2023-02-18T17:06:33.562Z,88.03
2023-02-18T17:09:03.844Z,88.31
2023-02-18T17:11:36.265Z,88.02
2023-02-18T17:14:06.520Z,88.84
2023-02-18T17:16:34.545Z,89.75
2023-02-18T17:19:05.572Z,89.44
2023-02-18T17:21:33.726Z,89.68
2023-02-18T17:24:04.094Z,89.69
2023-02-18T17:26:33.546Z,89.65
2023-02-18T17:29:03.161Z,89.97
2023-02-18T17:31:35.038Z,90.72
2023-02-18T17:34:07.619Z,89.46
2023-02-18T17:36:36.225Z,90.74
2023-02-18T17:39:07.542Z,91.49
2023-02-18T17:41:36.664Z,92.14
2023-02-18T17:44:12.252Z,92.77
2023-02-18T17:46:40.096Z,91.98
2023-02-18T17:49:07.891Z,92.18
2023-02-18T17:51:36.885Z,92.34
2023-02-18T17:54:05.229Z,92.20
2023-02-18T17:56:35.389Z,92.53
2023-02-18T17:59:05.111Z,92.43
2023-02-18T18:01:32.856Z,93.22
2023-02-18T18:04:00.539Z,93.75
2023-02-18T18:06:28.583Z,94.24
2023-02-18T18:08:56.789Z,94.38
2023-02-18T18:11:25.996Z,94.87
2023-02-18T18:13:54.774Z,95.33
2023-02-18T18:16:23.802Z,95.28
2023-02-18T18:18:51.719Z,95.60
2023-02-18T18:21:23.184Z,96.31
2023-02-18T18:23:51.849Z,96.20
2023-02-18T18:26:19.622Z,96.13
2023-02-18T18:28:47.301Z,96.35
2023-02-18T18:31:18.625Z,96.76
2023-02-18T18:33:50.442Z,97.17
2023-02-18T18:36:19.642Z,97.84
2023-02-18T18:38:47.887Z,98.38
2023-02-18T18:41:18.086Z,98.48
2023-02-18T18:43:46.690Z,98.55
2023-02-18T18:46:14.756Z,98.29
2023-02-18T18:48:42.892Z,97.86
2023-02-18T18:51:16.944Z,98.09
2023-02-18T18:53:44.942Z,99.04
2023-02-18T18:56:13.575Z,99.17
2023-02-18T18:58:41.910Z,99.20
2023-02-18T19:01:17.195Z,99.55
2023-02-18T19:03:45.986Z,99.61
2023-02-18T19:06:17.234Z,99.63
2023-02-18T19:08:45.532Z,98.79
2023-02-18T19:11:14.137Z,98.83
2023-02-18T19:13:43.152Z,98.85
2023-02-18T19:16:18.119Z,98.66
2023-02-18T19:18:46.427Z,98.91
2023-02-18T19:21:16.647Z,99.12
2023-02-18T19:23:44.500Z,99.67
2023-02-18T19:26:13.895Z,99.52
2023-02-18T19:28:41.779Z,99.54
2023-02-18T19:31:11.600Z,99.51
2023-02-18T19:33:40.344Z,99.20
2023-02-18T19:36:11.116Z,99.07
2023-02-18T19:38:40.415Z,99.32
2023-02-18T19:41:12.384Z,99.36
2023-02-18T19:43:40.988Z,99.69
2023-02-18T19:46:10.851Z,99.65
2023-02-18T19:48:39.154Z,99.85
2023-02-18T19:51:09.009Z,100.00
2023-02-18T19:53:37.549Z,99.71
2023-02-18T19:56:08.770Z,99.89
2023-02-18T19:58:37.232Z,98.46
2023-02-18T20:01:06.104Z,98.65
2023-02-18T20:03:34.514Z,98.42
2023-02-18T20:06:02.523Z,99.00
2023-02-18T20:08:30.771Z,98.77
2023-02-18T20:10:59.608Z,98.58
2023-02-18T20:13:29.178Z,98.05
2023-02-18T20:15:58.469Z,96.94
2023-02-18T20:18:26.593Z,97.19
2023-02-18T20:20:54.737Z,97.21
2023-02-18T20:23:23.112Z,96.83
2023-02-18T20:25:51.182Z,96.53
2023-02-18T20:28:19.371Z,96.40
2023-02-18T20:30:49.165Z,96.43
2023-02-18T20:33:17.133Z,95.04
2023-02-18T20:35:44.990Z,95.29
2023-02-18T20:38:13.954Z,95.44
2023-02-18T20:40:42.616Z,95.74
2023-02-18T20:43:13.299Z,96.04
2023-02-18T20:45:41.236Z,96.21
2023-02-18T20:48:11.992Z,95.78
2023-02-18T20:50:41.531Z,95.72
2023-02-18T20:53:09.480Z,95.53
2023-02-18T20:55:38.068Z,94.87
2023-02-18T20:58:05.976Z,94.83
2023-02-18T21:00:33.893Z,94.88
2023-02-18T21:03:01.839Z,95.43
2023-02-18T21:05:31.584Z,95.78
2023-02-18T21:07:59.735Z,94.84
2023-02-18T21:10:27.683Z,95.24
2023-02-18T21:12:56.036Z,95.07
2023-02-18T21:15:24.490Z,95.13
2023-02-18T21:17:52.366Z,95.25
2023-02-18T21:20:20.169Z,95.49
2023-02-18T21:22:49.566Z,95.54
2023-02-18T21:25:17.375Z,95.65
2023-02-18T21:27:45.256Z,96.08
2023-02-18T21:30:16.956Z,95.57
2023-02-18T21:32:44.867Z,94.81
2023-02-18T21:35:13.505Z,95.62
2023-02-18T21:37:41.548Z,96.22
2023-02-18T21:40:12.059Z,96.21
2023-02-18T21:42:40.741Z,96.54
2023-02-18T21:45:09.630Z,96.67
2023-02-18T21:47:37.766Z,97.05
2023-02-18T21:50:06.355Z,96.15
2023-02-18T21:52:34.343Z,96.78
2023-02-18T21:55:02.310Z,96.59
2023-02-18T21:57:32.257Z,97.30
2023-02-18T22:00:11.243Z,96.60
2023-02-18T22:02:46.534Z,96.13
2023-02-18T22:05:15.749Z,96.03
2023-02-18T22:07:43.759Z,95.60
2023-02-18T22:10:11.957Z,95.62
2023-02-18T22:12:41.460Z,95.80
2023-02-18T22:15:10.089Z,95.37
2023-02-18T22:17:38.219Z,95.46
2023-02-18T22:20:08.260Z,96.13
2023-02-18T22:22:36.218Z,96.57
2023-02-18T22:25:04.063Z,96.43
2023-02-18T22:27:33.157Z,96.78
2023-02-18T22:30:02.540Z,97.17
2023-02-18T22:32:31.815Z,96.98
2023-02-18T22:35:00.301Z,97.68
2023-02-18T22:37:28.339Z,97.62
2023-02-18T22:39:57.141Z,97.77
2023-02-18T22:42:25.674Z,98.12
2023-02-18T22:44:53.591Z,98.37
2023-02-18T22:47:22.973Z,97.98
2023-02-18T22:49:50.817Z,98.45
2023-02-18T22:52:18.503Z,97.71
2023-02-18T22:54:46.325Z,98.11
2023-02-18T22:57:14.206Z,98.87
2023-02-18T22:59:42.032Z,98.72
2023-02-18T23:02:10.372Z,99.36
2023-02-18T23:04:41.693Z,99.88
2023-02-18T23:07:09.496Z,100.00
2023-02-18T23:09:37.162Z,100.00
2023-02-18T23:12:05.609Z,100.00
2023-02-18T23:14:33.378Z,100.00
2023-02-18T23:17:16.715Z,100.00
2023-02-18T23:19:47.139Z,100.00
2023-02-18T23:22:17.565Z,100.00
2023-02-18T23:24:46.852Z,100.00
2023-02-18T23:27:16.301Z,100.00
2023-02-18T23:29:44.228Z,100.00
2023-02-18T23:32:11.911Z,100.00
2023-02-18T23:34:39.588Z,100.00
2023-02-18T23:37:09.181Z,100.00
2023-02-18T23:39:37.042Z,100.00
2023-02-18T23:42:05.029Z,100.00
2023-02-18T23:44:32.862Z,100.00
2023-02-18T23:47:00.765Z,100.00
2023-02-18T23:49:28.946Z,100.00
2023-02-18T23:51:58.658Z,100.00
2023-02-18T23:54:27.820Z,100.00
2023-02-18T23:56:55.641Z,100.00
2023-02-18T23:59:23.599Z,100.00
